No requiere especial atencion con respecto al clima.   -   No hay Alarmas

Nearby METAR Reports

 

KSJC - San Jose, California, USA
Distance from station: NE 14km
Actualización: 23/11/2017 18:53
Haze, Muy nuboso
Haze, Muy nuboso
 Viento del S
Viento: S 6 km/h
Temperatura: 17°C
Rocío: 14°C
Humedad: 83%
Barómetro: 1021 hPa
Resumen: Haze
Clouds: Muy nuboso
Visibility: 10 km
Cloud details: Few Clouds 305 m
Parcialmente nuboso 1829 m
Muy nuboso 3353 m
2017/11/23 17:53 KSJC 231753Z 17003KT 6SM HZ FEW010 SCT060 BKN110 17/14 A3015 RMK AO2 SLP208 T01720144 10172 20133 50005
KNUQ - Moffett Nas/Mtn, California, USA
Distance from station: N 14km
Actualización: 23/11/2017 18:56
Despejado
Despejado
 Viento del calm
Viento: Calma
Temperatura: 17°C
Rocío: 14°C
Humedad: 83%
Barómetro: 1021.3 hPa
Clouds: Despejado
Visibility: 14 km
2017/11/23 17:56 KNUQ 231756Z 00000KT 9SM CLR 17/14 A3016 RMK AO2 SLP214 T01670144 10167 20122 50008
 
KPAO - Palo Alto, California, USA
Distance from station: NNO 23km
Actualización: 23/11/2017 17:47
NOT Current
Muy nuboso
Muy nuboso
 Viento del calm
Viento: Calma
Temperatura: 17°C
Rocío: 15°C
Humedad: 88%
Barómetro: 1021 hPa
Clouds: Muy nuboso
Visibility: 16 km
Cloud details: Muy nuboso 3048 m
2017/11/23 16:47 KPAO 231647Z 00000KT 10SM BKN100 17/15 A3015
KRHV - San Jose/Reid, California, USA
Distance from station: ENE 19km
Actualización: 23/11/2017 18:50
Muy nuboso
Muy nuboso
 Viento del calm
Viento: Calma
Temperatura: 18°C
Rocío: 15°C
Humedad: 83%
Barómetro: 1020.3 hPa
Clouds: Muy nuboso
Visibility: 16 km
Cloud details: Muy nuboso 3048 m
2017/11/23 17:50 KRHV 231750Z 00000KT 10SM BKN100 18/15 A3013
 
KOAK - Oakland, California, USA
Distance from station: NNO 50km
Actualización: 23/11/2017 18:53
Muy nuboso
Muy nuboso
 Viento del SSO
Viento: SSO 7 km/h
Temperatura: 16°C
Rocío: 14°C
Humedad: 88%
Barómetro: 1021 hPa
Clouds: Muy nuboso
Visibility: 16 km
Cloud details: Muy nuboso 6096 m
2017/11/23 17:53 KOAK 231753Z 20004KT 10SM BKN200 16/14 A3015 RMK AO2 SLP210 T01560144 10156 20117 51006
KSQL - San Carlos Airpo, California, USA
Distance from station: NO 34km
Actualización: 23/11/2017 18:50
Muy nuboso
Muy nuboso
 Viento del calm
Viento: Calma
Temperatura: 17°C
Rocío: 15°C
Humedad: 88%
Barómetro: 1021.3 hPa
Clouds: Muy nuboso
Visibility: 16 km
Cloud details: Muy nuboso 5486 m
2017/11/23 17:50 KSQL 231750Z 00000KT 10SM BKN180 17/15 A3016
 
KSFO - San Francisco, California, USA
Distance from station: NO 49km
Actualización: 23/11/2017 18:56
Muy nuboso
Muy nuboso
 Viento del ENE
Viento: ENE 6 km/h
Temperatura: 17°C
Rocío: 14°C
Humedad: 83%
Barómetro: 1021 hPa
Clouds: Muy nuboso
Visibility: 16 km
Cloud details: Muy nuboso 5486 m
2017/11/23 17:56 KSFO 231756Z 07003KT 10SM BKN180 17/14 A3015 RMK AO2 SLP210 T01670139 10178 20139 52007
KE16 - San Martin, California, USA
Distance from station: ESE 43km
Actualización: 23/11/2017 19:35
Despejado
Despejado
 Viento del NO
Viento: NO 19 km/h
Temperatura: 19°C
Rocío: 14°C
Humedad: 73%
Barómetro: 1021 hPa
Clouds: Despejado
Visibility: 16 km
2017/11/23 18:35 KE16 231835Z AUTO 32010KT 10SM CLR 19/14 A3015 RMK AO2 PWINO PNO
 
KWVI - Watsonville, California, USA
Distance from station: SSE 44km
Actualización: 23/11/2017 18:53
Despejado
Despejado
 Viento del calm
Viento: Calma
Temperatura: 19°C
Rocío: 15°C
Humedad: 78%
Barómetro: 1020.3 hPa
Clouds: Despejado
Visibility: 16 km
2017/11/23 17:53 KWVI 231753Z AUTO 00000KT 10SM CLR 19/15 A3013 RMK AO2 SLP203 T01890150 10189 20111 50007 $
KHAF - Half Moon Bay, California, USA
Distance from station: ONO 50km
Actualización: 23/11/2017 19:35
Despejado
Despejado
 Viento del NO
Viento: NO 15 km/h
Temperatura: 22°C
Rocío: 13°C
Humedad: 57%
Barómetro: 1019.6 hPa
Clouds: Despejado
Visibility: 16 km
2017/11/23 18:35 KHAF 231835Z AUTO 32008KT 10SM CLR 22/13 A3011 RMK AO2
 
KHWD - Hayward, California, USA
Distance from station: N 44km
Actualización: 23/11/2017 18:54
Despejado
Despejado
 Viento del S
Viento: S 11 km/h
Temperatura: 17°C
Rocío: 13°C
Humedad: 77%
Barómetro: 1020.7 hPa
Clouds: Despejado
Visibility: 14 km
2017/11/23 17:54 KHWD 231754Z 19006KT 9SM CLR 17/13 A3014 RMK AO2 SLP216 T01720128 10178 20122 50005
KLVK - Livermore, California, USA
Distance from station: NNE 51km
Actualización: 23/11/2017 18:53
Despejado
Despejado
 Viento del calm
Viento: Calma
Temperatura: 16°C
Rocío: 12°C
Humedad: 77%
Barómetro: 1021 hPa
Clouds: Despejado
Visibility: 16 km
2017/11/23 17:53 KLVK 231753Z 00000KT 10SM CLR 16/12 A3015 RMK AO2 SLP208 T01560122 10156 20106 50006